Wausaukee, Wisconsin
Current Conditions -  °F | °C
As of 7:35 AM on Friday 28 Nov 2014 (Local Time) from KMNM Reporting Station
Overcast Overcast  
Wind Chill: 10°   Ceiling: 8500
Heat Index: 10°   Visibility: 10mi
Dew Point:   Wind: 0mph
Humidity: 85%   Direction: NA
Pressure: 30.21"   Gusts: NA
Location:  45.37°N, 87.95°W
Report Text: KMNM 281335Z AUTO 00000KT 10SM SCT070 OVC085 M12/M14 A3021 RMK AO1
Loading
Personal Weather Stations






























Interactive Weather Map New forecast layout! Learn more

10-Day Weather Forecast

Advertisements
Track Severe Weather on mobile